sensor_id;sensor_type;location;lat;lon;timestamp;P1;durP1;ratioP1;P2;durP2;ratioP2
2107;SDS011;1060;52.492;13.388;2023-01-26T00:00:48;18.65;;;13.10;;
2107;SDS011;1060;52.492;13.388;2023-01-26T00:03:14;25.33;;;14.05;;
2107;SDS011;1060;52.492;13.388;2023-01-26T00:05:41;19.95;;;12.15;;
2107;SDS011;1060;52.492;13.388;2023-01-26T00:08:07;19.20;;;13.55;;
2107;SDS011;1060;52.492;13.388;2023-01-26T00:10:36;26.05;;;13.82;;
2107;SDS011;1060;52.492;13.388;2023-01-26T00:13:03;21.40;;;14.50;;
2107;SDS011;1060;52.492;13.388;2023-01-26T00:15:32;19.08;;;13.45;;
2107;SDS011;1060;52.492;13.388;2023-01-26T00:17:59;25.08;;;14.10;;
2107;SDS011;1060;52.492;13.388;2023-01-26T00:20:26;20.65;;;13.23;;
2107;SDS011;1060;52.492;13.388;2023-01-26T00:22:52;22.85;;;14.95;;
2107;SDS011;1060;52.492;13.388;2023-01-26T00:25:18;19.67;;;15.10;;
2107;SDS011;1060;52.492;13.388;2023-01-26T00:27:44;22.77;;;15.40;;
2107;SDS011;1060;52.492;13.388;2023-01-26T00:30:14;22.77;;;15.00;;
2107;SDS011;1060;52.492;13.388;2023-01-26T00:32:40;24.38;;;16.55;;
2107;SDS011;1060;52.492;13.388;2023-01-26T00:35:08;25.70;;;15.90;;
2107;SDS011;1060;52.492;13.388;2023-01-26T00:37:34;22.65;;;15.48;;
2107;SDS011;1060;52.492;13.388;2023-01-26T00:40:01;23.58;;;15.23;;
2107;SDS011;1060;52.492;13.388;2023-01-26T00:42:27;21.08;;;13.52;;
2107;SDS011;1060;52.492;13.388;2023-01-26T00:44:55;22.65;;;15.40;;
2107;SDS011;1060;52.492;13.388;2023-01-26T00:47:21;26.00;;;14.30;;
2107;SDS011;1060;52.492;13.388;2023-01-26T00:49:48;19.70;;;13.32;;
2107;SDS011;1060;52.492;13.388;2023-01-26T00:52:14;24.30;;;14.77;;
2107;SDS011;1060;52.492;13.388;2023-01-26T00:54:40;24.23;;;19.52;;
2107;SDS011;1060;52.492;13.388;2023-01-26T00:57:07;24.40;;;14.52;;
2107;SDS011;1060;52.492;13.388;2023-01-26T00:59:34;18.73;;;14.65;;
2107;SDS011;1060;52.492;13.388;2023-01-26T01:02:00;22.38;;;17.42;;
2107;SDS011;1060;52.492;13.388;2023-01-26T01:04:27;22.80;;;15.55;;
2107;SDS011;1060;52.492;13.388;2023-01-26T01:06:54;20.52;;;15.02;;
2107;SDS011;1060;52.492;13.388;2023-01-26T01:09:20;24.48;;;14.02;;
2107;SDS011;1060;52.492;13.388;2023-01-26T01:11:48;20.30;;;16.77;;
2107;SDS011;1060;52.492;13.388;2023-01-26T01:14:14;20.63;;;16.38;;
2107;SDS011;1060;52.492;13.388;2023-01-26T01:16:42;18.02;;;14.68;;
2107;SDS011;1060;52.492;13.388;2023-01-26T01:19:10;20.98;;;14.40;;
2107;SDS011;1060;52.492;13.388;2023-01-26T01:21:37;22.88;;;14.70;;
2107;SDS011;1060;52.492;13.388;2023-01-26T01:24:04;23.42;;;15.52;;
2107;SDS011;1060;52.492;13.388;2023-01-26T01:26:30;20.70;;;15.18;;
2107;SDS011;1060;52.492;13.388;2023-01-26T01:28:56;22.73;;;17.90;;
2107;SDS011;1060;52.492;13.388;2023-01-26T01:31:23;29.48;;;16.25;;
2107;SDS011;1060;52.492;13.388;2023-01-26T01:33:50;25.23;;;17.95;;
2107;SDS011;1060;52.492;13.388;2023-01-26T01:36:21;24.23;;;17.58;;
2107;SDS011;1060;52.492;13.388;2023-01-26T01:38:51;25.05;;;15.70;;
2107;SDS011;1060;52.492;13.388;2023-01-26T01:41:18;23.52;;;15.13;;
2107;SDS011;1060;52.492;13.388;2023-01-26T01:43:46;26.38;;;16.88;;
2107;SDS011;1060;52.492;13.388;2023-01-26T01:46:17;25.63;;;16.88;;
2107;SDS011;1060;52.492;13.388;2023-01-26T01:48:55;23.55;;;17.75;;
2107;SDS011;1060;52.492;13.388;2023-01-26T01:51:26;30.25;;;17.50;;
2107;SDS011;1060;52.492;13.388;2023-01-26T01:53:59;23.63;;;16.67;;
2107;SDS011;1060;52.492;13.388;2023-01-26T01:56:29;27.75;;;20.45;;
2107;SDS011;1060;52.492;13.388;2023-01-26T01:58:57;22.77;;;17.25;;
2107;SDS011;1060;52.492;13.388;2023-01-26T02:01:24;29.75;;;20.13;;
2107;SDS011;1060;52.492;13.388;2023-01-26T02:03:51;23.55;;;17.58;;
2107;SDS011;1060;52.492;13.388;2023-01-26T02:06:41;24.55;;;16.65;;
2107;SDS011;1060;52.492;13.388;2023-01-26T02:09:05;27.63;;;17.67;;
2107;SDS011;1060;52.492;13.388;2023-01-26T02:11:33;20.27;;;14.73;;
2107;SDS011;1060;52.492;13.388;2023-01-26T02:14:00;19.75;;;14.25;;
2107;SDS011;1060;52.492;13.388;2023-01-26T02:16:27;22.15;;;14.52;;
2107;SDS011;1060;52.492;13.388;2023-01-26T02:18:54;21.95;;;15.02;;
2107;SDS011;1060;52.492;13.388;2023-01-26T02:21:21;24.25;;;17.92;;
2107;SDS011;1060;52.492;13.388;2023-01-26T02:26:28;25.67;;;18.15;;
2107;SDS011;1060;52.492;13.388;2023-01-26T02:28:55;28.90;;;18.30;;
2107;SDS011;1060;52.492;13.388;2023-01-26T02:31:21;27.30;;;19.45;;
2107;SDS011;1060;52.492;13.388;2023-01-26T02:33:48;26.38;;;17.00;;
2107;SDS011;1060;52.492;13.388;2023-01-26T02:36:22;20.00;;;15.60;;
2107;SDS011;1060;52.492;13.388;2023-01-26T02:41:18;29.10;;;16.70;;
2107;SDS011;1060;52.492;13.388;2023-01-26T02:44:04;25.92;;;18.73;;
2107;SDS011;1060;52.492;13.388;2023-01-26T02:46:32;24.20;;;16.40;;
2107;SDS011;1060;52.492;13.388;2023-01-26T02:48:58;26.42;;;19.73;;
2107;SDS011;1060;52.492;13.388;2023-01-26T02:51:43;28.08;;;19.10;;
2107;SDS011;1060;52.492;13.388;2023-01-26T02:54:09;29.85;;;18.33;;
2107;SDS011;1060;52.492;13.388;2023-01-26T02:56:59;28.10;;;18.08;;
2107;SDS011;1060;52.492;13.388;2023-01-26T02:59:25;24.60;;;15.80;;
2107;SDS011;1060;52.492;13.388;2023-01-26T03:01:52;30.42;;;21.00;;
2107;SDS011;1060;52.492;13.388;2023-01-26T03:04:19;27.90;;;21.23;;
2107;SDS011;1060;52.492;13.388;2023-01-26T03:06:45;32.30;;;18.15;;
2107;SDS011;1060;52.492;13.388;2023-01-26T03:09:11;29.77;;;18.70;;
2107;SDS011;1060;52.492;13.388;2023-01-26T03:11:38;32.80;;;21.60;;
2107;SDS011;1060;52.492;13.388;2023-01-26T03:14:11;33.38;;;21.27;;
2107;SDS011;1060;52.492;13.388;2023-01-26T03:16:37;29.70;;;19.73;;
2107;SDS011;1060;52.492;13.388;2023-01-26T03:19:04;26.02;;;17.55;;
2107;SDS011;1060;52.492;13.388;2023-01-26T03:21:33;30.35;;;21.60;;
2107;SDS011;1060;52.492;13.388;2023-01-26T03:24:21;31.85;;;20.98;;
2107;SDS011;1060;52.492;13.388;2023-01-26T03:27:08;29.27;;;16.42;;
2107;SDS011;1060;52.492;13.388;2023-01-26T03:29:56;30.45;;;20.30;;
2107;SDS011;1060;52.492;13.388;2023-01-26T03:32:23;26.52;;;19.63;;
2107;SDS011;1060;52.492;13.388;2023-01-26T03:34:50;39.80;;;23.88;;
2107;SDS011;1060;52.492;13.388;2023-01-26T03:37:17;37.20;;;23.27;;
2107;SDS011;1060;52.492;13.388;2023-01-26T03:39:55;33.47;;;21.52;;
2107;SDS011;1060;52.492;13.388;2023-01-26T03:42:41;21.42;;;18.90;;
2107;SDS011;1060;52.492;13.388;2023-01-26T03:45:28;24.55;;;18.20;;
2107;SDS011;1060;52.492;13.388;2023-01-26T03:48:13;43.08;;;23.30;;
2107;SDS011;1060;52.492;13.388;2023-01-26T03:51:00;26.50;;;18.00;;
2107;SDS011;1060;52.492;13.388;2023-01-26T03:53:45;24.77;;;17.65;;
2107;SDS011;1060;52.492;13.388;2023-01-26T03:56:30;30.42;;;19.15;;
2107;SDS011;1060;52.492;13.388;2023-01-26T03:59:02;33.65;;;21.20;;
2107;SDS011;1060;52.492;13.388;2023-01-26T04:01:39;26.90;;;17.85;;
2107;SDS011;1060;52.492;13.388;2023-01-26T04:04:06;19.58;;;14.98;;
2107;SDS011;1060;52.492;13.388;2023-01-26T04:06:51;20.45;;;16.27;;
2107;SDS011;1060;52.492;13.388;2023-01-26T04:09:42;23.92;;;17.90;;
2107;SDS011;1060;52.492;13.388;2023-01-26T04:12:08;24.35;;;15.93;;
2107;SDS011;1060;52.492;13.388;2023-01-26T04:14:44;29.35;;;16.83;;
2107;SDS011;1060;52.492;13.388;2023-01-26T04:17:30;29.08;;;17.40;;
2107;SDS011;1060;52.492;13.388;2023-01-26T04:20:14;20.75;;;14.90;;
2107;SDS011;1060;52.492;13.388;2023-01-26T04:22:59;24.60;;;15.10;;
2107;SDS011;1060;52.492;13.388;2023-01-26T04:25:26;21.52;;;13.05;;
2107;SDS011;1060;52.492;13.388;2023-01-26T04:27:54;27.17;;;20.40;;
2107;SDS011;1060;52.492;13.388;2023-01-26T04:30:21;23.48;;;15.45;;
2107;SDS011;1060;52.492;13.388;2023-01-26T04:32:47;20.77;;;14.95;;
2107;SDS011;1060;52.492;13.388;2023-01-26T04:35:16;21.50;;;15.40;;
2107;SDS011;1060;52.492;13.388;2023-01-26T04:37:43;20.00;;;14.38;;
2107;SDS011;1060;52.492;13.388;2023-01-26T04:40:09;25.77;;;15.75;;
2107;SDS011;1060;52.492;13.388;2023-01-26T04:42:36;23.27;;;15.02;;
2107;SDS011;1060;52.492;13.388;2023-01-26T04:45:04;18.27;;;14.07;;
2107;SDS011;1060;52.492;13.388;2023-01-26T04:47:30;22.20;;;14.25;;
2107;SDS011;1060;52.492;13.388;2023-01-26T04:49:57;18.48;;;13.98;;
2107;SDS011;1060;52.492;13.388;2023-01-26T04:52:23;18.63;;;12.10;;
2107;SDS011;1060;52.492;13.388;2023-01-26T04:54:55;15.00;;;11.65;;
2107;SDS011;1060;52.492;13.388;2023-01-26T04:57:21;15.07;;;12.48;;
2107;SDS011;1060;52.492;13.388;2023-01-26T04:59:49;17.25;;;12.48;;
2107;SDS011;1060;52.492;13.388;2023-01-26T05:02:17;21.00;;;14.07;;
2107;SDS011;1060;52.492;13.388;2023-01-26T05:04:44;16.63;;;13.05;;
2107;SDS011;1060;52.492;13.388;2023-01-26T05:07:10;19.00;;;13.23;;
2107;SDS011;1060;52.492;13.388;2023-01-26T05:09:37;14.25;;;11.00;;
2107;SDS011;1060;52.492;13.388;2023-01-26T05:12:26;21.85;;;13.82;;
2107;SDS011;1060;52.492;13.388;2023-01-26T05:15:28;18.17;;;12.38;;
2107;SDS011;1060;52.492;13.388;2023-01-26T05:18:08;20.90;;;14.90;;
2107;SDS011;1060;52.492;13.388;2023-01-26T05:20:46;22.00;;;14.95;;
2107;SDS011;1060;52.492;13.388;2023-01-26T05:23:17;19.45;;;13.68;;
2107;SDS011;1060;52.492;13.388;2023-01-26T05:26:02;20.40;;;13.65;;
2107;SDS011;1060;52.492;13.388;2023-01-26T05:28:35;20.05;;;12.40;;
2107;SDS011;1060;52.492;13.388;2023-01-26T05:31:01;19.23;;;14.02;;
2107;SDS011;1060;52.492;13.388;2023-01-26T05:33:27;28.20;;;19.98;;
2107;SDS011;1060;52.492;13.388;2023-01-26T05:35:54;14.70;;;10.15;;
2107;SDS011;1060;52.492;13.388;2023-01-26T05:38:20;17.10;;;12.88;;
2107;SDS011;1060;52.492;13.388;2023-01-26T05:40:47;15.38;;;13.35;;
2107;SDS011;1060;52.492;13.388;2023-01-26T05:43:14;19.73;;;13.25;;
2107;SDS011;1060;52.492;13.388;2023-01-26T05:46:09;18.67;;;11.95;;
2107;SDS011;1060;52.492;13.388;2023-01-26T05:48:40;17.35;;;15.55;;
2107;SDS011;1060;52.492;13.388;2023-01-26T05:51:06;20.42;;;13.23;;
2107;SDS011;1060;52.492;13.388;2023-01-26T05:53:34;25.73;;;15.50;;
2107;SDS011;1060;52.492;13.388;2023-01-26T05:56:03;24.00;;;14.77;;
2107;SDS011;1060;52.492;13.388;2023-01-26T05:58:31;18.77;;;12.05;;
2107;SDS011;1060;52.492;13.388;2023-01-26T06:01:02;23.63;;;15.00;;
2107;SDS011;1060;52.492;13.388;2023-01-26T06:03:30;21.63;;;13.00;;
2107;SDS011;1060;52.492;13.388;2023-01-26T06:05:56;18.10;;;13.00;;
2107;SDS011;1060;52.492;13.388;2023-01-26T06:08:40;26.08;;;14.75;;
2107;SDS011;1060;52.492;13.388;2023-01-26T06:11:30;18.35;;;12.10;;
2107;SDS011;1060;52.492;13.388;2023-01-26T06:14:17;14.68;;;12.27;;
2107;SDS011;1060;52.492;13.388;2023-01-26T06:16:43;20.63;;;12.55;;
2107;SDS011;1060;52.492;13.388;2023-01-26T06:19:09;20.08;;;12.50;;
2107;SDS011;1060;52.492;13.388;2023-01-26T06:21:37;19.95;;;11.88;;
2107;SDS011;1060;52.492;13.388;2023-01-26T06:24:03;19.48;;;12.35;;
2107;SDS011;1060;52.492;13.388;2023-01-26T06:26:29;13.40;;;9.50;;
2107;SDS011;1060;52.492;13.388;2023-01-26T06:28:56;13.02;;;9.20;;
2107;SDS011;1060;52.492;13.388;2023-01-26T06:31:26;18.63;;;11.70;;
2107;SDS011;1060;52.492;13.388;2023-01-26T06:33:55;16.98;;;12.48;;
2107;SDS011;1060;52.492;13.388;2023-01-26T06:36:21;22.35;;;12.07;;
2107;SDS011;1060;52.492;13.388;2023-01-26T06:38:48;15.68;;;10.60;;
2107;SDS011;1060;52.492;13.388;2023-01-26T06:41:17;18.23;;;12.27;;
2107;SDS011;1060;52.492;13.388;2023-01-26T06:43:44;12.85;;;10.38;;
2107;SDS011;1060;52.492;13.388;2023-01-26T06:46:11;17.88;;;9.93;;
2107;SDS011;1060;52.492;13.388;2023-01-26T06:48:38;18.13;;;10.40;;
2107;SDS011;1060;52.492;13.388;2023-01-26T06:53:53;22.52;;;15.98;;
2107;SDS011;1060;52.492;13.388;2023-01-26T06:56:38;15.32;;;10.63;;
2107;SDS011;1060;52.492;13.388;2023-01-26T06:59:34;22.67;;;12.68;;
2107;SDS011;1060;52.492;13.388;2023-01-26T07:02:16;33.47;;;13.75;;
2107;SDS011;1060;52.492;13.388;2023-01-26T07:04:43;15.88;;;12.00;;
2107;SDS011;1060;52.492;13.388;2023-01-26T07:07:09;16.83;;;12.60;;
2107;SDS011;1060;52.492;13.388;2023-01-26T07:09:35;18.80;;;15.90;;
2107;SDS011;1060;52.492;13.388;2023-01-26T07:12:01;23.30;;;15.05;;
2107;SDS011;1060;52.492;13.388;2023-01-26T07:14:30;19.35;;;12.13;;
2107;SDS011;1060;52.492;13.388;2023-01-26T07:16:56;16.80;;;12.95;;
2107;SDS011;1060;52.492;13.388;2023-01-26T07:19:22;16.75;;;11.90;;
2107;SDS011;1060;52.492;13.388;2023-01-26T07:21:48;17.00;;;12.55;;
2107;SDS011;1060;52.492;13.388;2023-01-26T07:24:14;20.55;;;12.35;;
2107;SDS011;1060;52.492;13.388;2023-01-26T07:26:41;32.88;;;20.65;;
2107;SDS011;1060;52.492;13.388;2023-01-26T07:29:07;18.48;;;15.30;;
2107;SDS011;1060;52.492;13.388;2023-01-26T07:31:33;21.85;;;16.77;;
2107;SDS011;1060;52.492;13.388;2023-01-26T07:33:59;22.73;;;14.60;;
2107;SDS011;1060;52.492;13.388;2023-01-26T07:36:27;20.20;;;15.05;;
2107;SDS011;1060;52.492;13.388;2023-01-26T07:38:53;24.10;;;14.95;;
2107;SDS011;1060;52.492;13.388;2023-01-26T07:41:20;22.92;;;14.77;;
2107;SDS011;1060;52.492;13.388;2023-01-26T07:43:52;17.35;;;13.25;;
2107;SDS011;1060;52.492;13.388;2023-01-26T07:46:18;23.23;;;14.43;;
2107;SDS011;1060;52.492;13.388;2023-01-26T07:48:44;19.25;;;13.35;;
2107;SDS011;1060;52.492;13.388;2023-01-26T07:51:13;24.73;;;15.10;;
2107;SDS011;1060;52.492;13.388;2023-01-26T07:53:40;17.42;;;13.90;;
2107;SDS011;1060;52.492;13.388;2023-01-26T07:56:08;24.48;;;13.60;;
2107;SDS011;1060;52.492;13.388;2023-01-26T07:58:34;21.60;;;14.15;;
2107;SDS011;1060;52.492;13.388;2023-01-26T08:01:13;20.65;;;13.95;;
2107;SDS011;1060;52.492;13.388;2023-01-26T08:03:42;21.45;;;14.77;;
2107;SDS011;1060;52.492;13.388;2023-01-26T08:06:11;19.52;;;12.00;;
2107;SDS011;1060;52.492;13.388;2023-01-26T08:08:38;16.40;;;13.20;;
2107;SDS011;1060;52.492;13.388;2023-01-26T08:11:05;18.75;;;14.30;;
2107;SDS011;1060;52.492;13.388;2023-01-26T08:13:31;15.93;;;12.20;;
2107;SDS011;1060;52.492;13.388;2023-01-26T08:16:05;13.10;;;10.35;;
2107;SDS011;1060;52.492;13.388;2023-01-26T08:18:36;17.40;;;13.15;;
2107;SDS011;1060;52.492;13.388;2023-01-26T08:21:05;17.80;;;13.00;;
2107;SDS011;1060;52.492;13.388;2023-01-26T08:23:34;17.45;;;12.65;;
2107;SDS011;1060;52.492;13.388;2023-01-26T08:26:05;20.23;;;12.20;;
2107;SDS011;1060;52.492;13.388;2023-01-26T08:28:35;20.17;;;12.45;;
2107;SDS011;1060;52.492;13.388;2023-01-26T08:31:11;18.65;;;12.88;;
2107;SDS011;1060;52.492;13.388;2023-01-26T08:33:38;24.55;;;16.90;;
2107;SDS011;1060;52.492;13.388;2023-01-26T08:36:06;18.05;;;14.43;;
2107;SDS011;1060;52.492;13.388;2023-01-26T08:38:33;17.75;;;12.70;;
2107;SDS011;1060;52.492;13.388;2023-01-26T08:41:00;18.58;;;12.80;;
2107;SDS011;1060;52.492;13.388;2023-01-26T08:43:26;24.02;;;17.67;;
2107;SDS011;1060;52.492;13.388;2023-01-26T08:45:52;23.50;;;14.93;;
2107;SDS011;1060;52.492;13.388;2023-01-26T08:48:19;20.88;;;13.40;;
2107;SDS011;1060;52.492;13.388;2023-01-26T08:50:45;18.88;;;13.48;;
2107;SDS011;1060;52.492;13.388;2023-01-26T08:53:11;15.80;;;13.05;;
2107;SDS011;1060;52.492;13.388;2023-01-26T08:55:40;17.25;;;14.80;;
2107;SDS011;1060;52.492;13.388;2023-01-26T08:58:07;18.67;;;14.63;;
2107;SDS011;1060;52.492;13.388;2023-01-26T09:00:33;17.17;;;14.73;;
2107;SDS011;1060;52.492;13.388;2023-01-26T09:03:00;20.50;;;13.57;;
2107;SDS011;1060;52.492;13.388;2023-01-26T09:05:27;17.30;;;12.70;;
2107;SDS011;1060;52.492;13.388;2023-01-26T09:07:58;20.40;;;15.32;;
2107;SDS011;1060;52.492;13.388;2023-01-26T09:10:24;27.40;;;16.25;;
2107;SDS011;1060;52.492;13.388;2023-01-26T09:12:51;22.98;;;16.67;;
2107;SDS011;1060;52.492;13.388;2023-01-26T09:15:20;18.35;;;12.90;;
2107;SDS011;1060;52.492;13.388;2023-01-26T09:17:52;18.13;;;13.80;;
2107;SDS011;1060;52.492;13.388;2023-01-26T09:20:26;17.40;;;14.25;;
2107;SDS011;1060;52.492;13.388;2023-01-26T09:22:53;16.30;;;12.90;;
2107;SDS011;1060;52.492;13.388;2023-01-26T09:25:19;15.18;;;11.27;;
2107;SDS011;1060;52.492;13.388;2023-01-26T09:27:48;17.63;;;12.63;;
2107;SDS011;1060;52.492;13.388;2023-01-26T09:30:15;13.63;;;12.02;;
2107;SDS011;1060;52.492;13.388;2023-01-26T09:32:49;14.77;;;11.13;;
2107;SDS011;1060;52.492;13.388;2023-01-26T09:35:16;14.35;;;11.20;;
2107;SDS011;1060;52.492;13.388;2023-01-26T09:37:42;14.82;;;11.38;;
2107;SDS011;1060;52.492;13.388;2023-01-26T09:40:19;17.70;;;13.98;;
2107;SDS011;1060;52.492;13.388;2023-01-26T09:45:30;16.15;;;13.25;;
2107;SDS011;1060;52.492;13.388;2023-01-26T09:48:16;14.88;;;12.35;;
2107;SDS011;1060;52.492;13.388;2023-01-26T09:50:56;14.88;;;13.32;;
2107;SDS011;1060;52.492;13.388;2023-01-26T09:53:26;13.32;;;11.00;;
2107;SDS011;1060;52.492;13.388;2023-01-26T09:55:55;16.33;;;12.98;;
2107;SDS011;1060;52.492;13.388;2023-01-26T09:58:33;14.90;;;12.20;;
2107;SDS011;1060;52.492;13.388;2023-01-26T10:01:00;16.40;;;14.30;;
2107;SDS011;1060;52.492;13.388;2023-01-26T10:06:15;11.88;;;10.68;;
2107;SDS011;1060;52.492;13.388;2023-01-26T10:09:12;16.25;;;12.75;;
2107;SDS011;1060;52.492;13.388;2023-01-26T10:11:40;12.38;;;10.30;;
2107;SDS011;1060;52.492;13.388;2023-01-26T10:14:18;17.13;;;12.85;;
2107;SDS011;1060;52.492;13.388;2023-01-26T10:16:48;14.82;;;12.07;;
2107;SDS011;1060;52.492;13.388;2023-01-26T10:19:30;18.95;;;13.50;;
2107;SDS011;1060;52.492;13.388;2023-01-26T10:21:59;19.15;;;15.25;;
2107;SDS011;1060;52.492;13.388;2023-01-26T10:24:27;17.23;;;13.75;;
2107;SDS011;1060;52.492;13.388;2023-01-26T10:26:55;19.45;;;14.93;;
2107;SDS011;1060;52.492;13.388;2023-01-26T10:29:22;22.45;;;15.68;;
2107;SDS011;1060;52.492;13.388;2023-01-26T10:31:48;20.23;;;14.32;;
2107;SDS011;1060;52.492;13.388;2023-01-26T10:34:15;21.95;;;16.15;;
2107;SDS011;1060;52.492;13.388;2023-01-26T10:36:45;15.25;;;12.75;;
2107;SDS011;1060;52.492;13.388;2023-01-26T10:39:12;16.75;;;14.35;;
2107;SDS011;1060;52.492;13.388;2023-01-26T10:41:39;21.67;;;14.48;;
2107;SDS011;1060;52.492;13.388;2023-01-26T10:46:40;18.00;;;14.80;;
2107;SDS011;1060;52.492;13.388;2023-01-26T10:51:43;29.35;;;17.88;;
2107;SDS011;1060;52.492;13.388;2023-01-26T10:54:19;19.60;;;12.65;;
2107;SDS011;1060;52.492;13.388;2023-01-26T10:56:51;17.60;;;14.93;;
2107;SDS011;1060;52.492;13.388;2023-01-26T11:04:40;17.75;;;11.77;;
2107;SDS011;1060;52.492;13.388;2023-01-26T11:07:23;14.98;;;13.30;;
2107;SDS011;1060;52.492;13.388;2023-01-26T11:09:50;23.88;;;16.92;;
2107;SDS011;1060;52.492;13.388;2023-01-26T11:12:17;22.92;;;16.65;;
2107;SDS011;1060;52.492;13.388;2023-01-26T11:15:00;17.60;;;13.85;;
2107;SDS011;1060;52.492;13.388;2023-01-26T11:17:29;16.30;;;13.93;;
2107;SDS011;1060;52.492;13.388;2023-01-26T11:25:10;14.88;;;13.02;;
2107;SDS011;1060;52.492;13.388;2023-01-26T11:40:39;17.65;;;14.82;;
2107;SDS011;1060;52.492;13.388;2023-01-26T11:48:08;16.00;;;14.00;;
2107;SDS011;1060;52.492;13.388;2023-01-26T11:53:42;17.80;;;14.20;;
2107;SDS011;1060;52.492;13.388;2023-01-26T11:58:54;18.73;;;15.75;;
2107;SDS011;1060;52.492;13.388;2023-01-26T12:01:27;21.17;;;16.27;;
2107;SDS011;1060;52.492;13.388;2023-01-26T12:03:54;19.48;;;17.58;;
2107;SDS011;1060;52.492;13.388;2023-01-26T12:06:34;22.25;;;18.15;;
2107;SDS011;1060;52.492;13.388;2023-01-26T12:12:05;22.73;;;16.08;;
2107;SDS011;1060;52.492;13.388;2023-01-26T12:14:43;16.83;;;13.95;;
2107;SDS011;1060;52.492;13.388;2023-01-26T12:25:22;15.95;;;12.93;;
2107;SDS011;1060;52.492;13.388;2023-01-26T12:27:58;20.42;;;14.80;;
2107;SDS011;1060;52.492;13.388;2023-01-26T12:30:50;26.00;;;17.40;;
2107;SDS011;1060;52.492;13.388;2023-01-26T12:33:14;14.25;;;12.48;;
2107;SDS011;1060;52.492;13.388;2023-01-26T12:35:47;21.15;;;13.45;;
2107;SDS011;1060;52.492;13.388;2023-01-26T12:38:17;17.50;;;12.68;;
2107;SDS011;1060;52.492;13.388;2023-01-26T12:41:05;18.20;;;12.50;;
2107;SDS011;1060;52.492;13.388;2023-01-26T12:43:36;18.05;;;13.88;;
2107;SDS011;1060;52.492;13.388;2023-01-26T12:46:04;14.52;;;11.00;;
2107;SDS011;1060;52.492;13.388;2023-01-26T12:51:19;15.00;;;11.90;;
2107;SDS011;1060;52.492;13.388;2023-01-26T12:53:55;13.27;;;11.80;;
2107;SDS011;1060;52.492;13.388;2023-01-26T12:56:24;14.88;;;11.98;;
2107;SDS011;1060;52.492;13.388;2023-01-26T12:58:52;14.40;;;11.30;;
2107;SDS011;1060;52.492;13.388;2023-01-26T13:01:20;14.35;;;11.20;;
2107;SDS011;1060;52.492;13.388;2023-01-26T13:03:51;17.17;;;11.60;;
2107;SDS011;1060;52.492;13.388;2023-01-26T13:06:19;11.88;;;10.23;;
2107;SDS011;1060;52.492;13.388;2023-01-26T13:08:47;15.30;;;11.57;;
2107;SDS011;1060;52.492;13.388;2023-01-26T13:14:00;12.45;;;10.85;;
2107;SDS011;1060;52.492;13.388;2023-01-26T13:16:32;23.35;;;18.67;;
2107;SDS011;1060;52.492;13.388;2023-01-26T13:19:01;15.38;;;13.15;;
2107;SDS011;1060;52.492;13.388;2023-01-26T13:26:47;12.65;;;10.50;;
2107;SDS011;1060;52.492;13.388;2023-01-26T13:31:52;13.60;;;10.85;;
2107;SDS011;1060;52.492;13.388;2023-01-26T13:34:20;12.65;;;9.02;;
2107;SDS011;1060;52.492;13.388;2023-01-26T13:36:47;11.60;;;10.55;;
2107;SDS011;1060;52.492;13.388;2023-01-26T13:39:23;12.70;;;9.07;;
2107;SDS011;1060;52.492;13.388;2023-01-26T13:41:52;11.93;;;10.52;;
2107;SDS011;1060;52.492;13.388;2023-01-26T13:44:20;11.95;;;10.75;;
2107;SDS011;1060;52.492;13.388;2023-01-26T13:46:50;11.85;;;9.43;;
2107;SDS011;1060;52.492;13.388;2023-01-26T13:49:35;11.98;;;9.75;;
2107;SDS011;1060;52.492;13.388;2023-01-26T13:52:02;11.57;;;9.57;;
2107;SDS011;1060;52.492;13.388;2023-01-26T13:54:28;10.43;;;9.27;;
2107;SDS011;1060;52.492;13.388;2023-01-26T13:56:59;13.45;;;10.60;;
2107;SDS011;1060;52.492;13.388;2023-01-26T13:59:26;11.48;;;10.07;;
2107;SDS011;1060;52.492;13.388;2023-01-26T14:01:53;12.45;;;9.90;;
2107;SDS011;1060;52.492;13.388;2023-01-26T14:04:20;12.55;;;9.85;;
2107;SDS011;1060;52.492;13.388;2023-01-26T14:09:20;10.13;;;9.10;;
2107;SDS011;1060;52.492;13.388;2023-01-26T14:11:51;14.05;;;11.27;;
2107;SDS011;1060;52.492;13.388;2023-01-26T14:14:23;16.30;;;11.40;;
2107;SDS011;1060;52.492;13.388;2023-01-26T14:16:50;13.20;;;11.18;;
2107;SDS011;1060;52.492;13.388;2023-01-26T14:19:17;16.92;;;14.20;;
2107;SDS011;1060;52.492;13.388;2023-01-26T14:21:45;17.95;;;10.82;;
2107;SDS011;1060;52.492;13.388;2023-01-26T14:24:11;12.80;;;11.25;;
2107;SDS011;1060;52.492;13.388;2023-01-26T14:26:37;15.48;;;12.30;;
2107;SDS011;1060;52.492;13.388;2023-01-26T14:29:09;13.73;;;10.82;;
2107;SDS011;1060;52.492;13.388;2023-01-26T14:31:35;16.40;;;12.25;;
2107;SDS011;1060;52.492;13.388;2023-01-26T14:34:02;18.52;;;13.65;;
2107;SDS011;1060;52.492;13.388;2023-01-26T14:36:33;17.20;;;12.48;;
2107;SDS011;1060;52.492;13.388;2023-01-26T14:39:09;20.90;;;13.77;;
2107;SDS011;1060;52.492;13.388;2023-01-26T14:41:39;16.80;;;13.60;;
2107;SDS011;1060;52.492;13.388;2023-01-26T14:44:07;15.35;;;11.70;;
2107;SDS011;1060;52.492;13.388;2023-01-26T14:49:16;14.82;;;11.57;;
2107;SDS011;1060;52.492;13.388;2023-01-26T14:51:45;15.32;;;13.02;;
2107;SDS011;1060;52.492;13.388;2023-01-26T14:54:17;17.65;;;14.70;;
2107;SDS011;1060;52.492;13.388;2023-01-26T14:56:45;16.67;;;13.55;;
2107;SDS011;1060;52.492;13.388;2023-01-26T14:59:20;20.30;;;14.55;;
2107;SDS011;1060;52.492;13.388;2023-01-26T15:01:46;16.85;;;12.85;;
2107;SDS011;1060;52.492;13.388;2023-01-26T15:06:45;19.80;;;12.55;;
2107;SDS011;1060;52.492;13.388;2023-01-26T15:12:08;17.48;;;13.73;;
2107;SDS011;1060;52.492;13.388;2023-01-26T15:17:28;16.30;;;12.95;;
2107;SDS011;1060;52.492;13.388;2023-01-26T15:19:55;16.92;;;11.10;;
2107;SDS011;1060;52.492;13.388;2023-01-26T15:22:22;19.70;;;12.50;;
2107;SDS011;1060;52.492;13.388;2023-01-26T15:25:13;20.95;;;13.23;;
2107;SDS011;1060;52.492;13.388;2023-01-26T15:27:42;19.80;;;13.48;;
2107;SDS011;1060;52.492;13.388;2023-01-26T15:30:16;23.73;;;13.15;;
2107;SDS011;1060;52.492;13.388;2023-01-26T15:32:44;22.83;;;14.63;;
2107;SDS011;1060;52.492;13.388;2023-01-26T15:37:40;22.60;;;15.65;;
2107;SDS011;1060;52.492;13.388;2023-01-26T15:40:06;25.17;;;17.67;;
2107;SDS011;1060;52.492;13.388;2023-01-26T15:42:33;22.77;;;17.83;;
2107;SDS011;1060;52.492;13.388;2023-01-26T15:44:59;28.48;;;18.48;;
2107;SDS011;1060;52.492;13.388;2023-01-26T15:47:25;27.38;;;18.30;;
2107;SDS011;1060;52.492;13.388;2023-01-26T15:49:54;22.92;;;16.52;;
2107;SDS011;1060;52.492;13.388;2023-01-26T15:52:22;26.98;;;16.63;;
2107;SDS011;1060;52.492;13.388;2023-01-26T15:54:50;27.35;;;21.63;;
2107;SDS011;1060;52.492;13.388;2023-01-26T15:57:16;27.90;;;20.40;;
2107;SDS011;1060;52.492;13.388;2023-01-26T15:59:42;29.95;;;20.70;;
2107;SDS011;1060;52.492;13.388;2023-01-26T16:02:16;29.77;;;19.38;;
2107;SDS011;1060;52.492;13.388;2023-01-26T16:04:42;26.83;;;19.58;;
2107;SDS011;1060;52.492;13.388;2023-01-26T16:07:13;28.00;;;17.70;;
2107;SDS011;1060;52.492;13.388;2023-01-26T16:09:40;24.02;;;16.52;;
2107;SDS011;1060;52.492;13.388;2023-01-26T16:12:11;29.38;;;21.15;;
2107;SDS011;1060;52.492;13.388;2023-01-26T16:14:38;31.85;;;20.30;;
2107;SDS011;1060;52.492;13.388;2023-01-26T16:17:14;27.35;;;18.58;;
2107;SDS011;1060;52.492;13.388;2023-01-26T16:19:44;29.77;;;20.88;;
2107;SDS011;1060;52.492;13.388;2023-01-26T16:22:11;25.92;;;19.23;;
2107;SDS011;1060;52.492;13.388;2023-01-26T16:24:41;26.42;;;19.20;;
2107;SDS011;1060;52.492;13.388;2023-01-26T16:27:08;23.88;;;17.90;;